Watauga, Tennessee
Current Conditions -  °F | °C
As of 12:35 PM on Thursday 30 Oct 2014 (Local Time) from K0A9 Reporting Station
Scattered Clouds Scattered Clouds  
Wind Chill: 54°   Ceiling: Unl
Heat Index: 54°   Visibility: 10mi
Dew Point: 41°   Wind: 7mph
Humidity: 62%   Direction: 260°W
Pressure: 30.1"   Gusts: NA
Location:  36.37°N, 82.3°W
Report Text: K0A9 301635Z AUTO 26006KT 10SM FEW024 SCT031 12/05 A3010 RMK
Loading
Personal Weather Stations






























Interactive Weather Map
Tropical Storm Tracking
New forecast layout! Learn more

10-Day Weather Forecast

Advertisements
Track Severe Weather on mobile